Sacramento, California
Traffic Map
Current Weather Conditions
Sacramento, California
Scattered Clouds
Scattered Clouds
63°
Feels Like: 63°
Wind Chill: 63° Ceiling: Unl
Heat Index: 63° Visibility: 10mi
Dew Point: 57° Wind: 8mph
Humidity: 81% Direction: 160° (SSE)
Pressure: 30.03in Gusts: 0mph
Raw Report DataKSAC 251753Z 16007KT 10SM SCT120 17/14 A3003 RMK AO2 RAE16 SLP170 P0001 60012 T01720139 10172 20150 51015
Traffic Incident Summary
Active as of:
Severity:
Category:
InformationThere was an issue retrieving the traffic information for this location. Please try a different location or try again shortly.
Advertisements
Track Severe Weather on mobile